This is the latest recevied weather packets stored in our database for station/object WD4IXD-WX. If no packets are shown the sender has not sent any weather packets the latest 10 day(s).
| Time | Temp. | Humidity | Pressure | Rain* | Wind** | Luminosity | Snow |
|---|---|---|---|---|---|---|---|
| 1778079904 | -6.11° C | 89% | 1016.1 hPa | 0 mm | - | 67 W/m² | - |
| 1778079604 | -6.67° C | 89% | 1016 hPa | 0 mm | - | 69 W/m² | - |
| 1778079304 | -6.67° C | 89% | 1016 hPa | 0 mm | - | 47 W/m² | - |
| 1778079004 | -6.67° C | 89% | 1015.9 hPa | 0 mm | - | 54 W/m² | - |
| 1778078704 | -6.67° C | 89% | 1015.8 hPa | 0 mm | - | 70 W/m² | - |
| 1778078404 | -6.67° C | 89% | 1015.7 hPa | 0 mm | - | 76 W/m² | - |
| 1778078104 | -6.67° C | 89% | 1015.6 hPa | 0 mm | - | 83 W/m² | - |
| 1778077804 | -6.67° C | 89% | 1015.6 hPa | 0 mm | - | 91 W/m² | - |
| 1778077504 | -6.67° C | 89% | 1015.4 hPa | 0 mm | - | 109 W/m² | - |
| 1778077204 | -6.67° C | 89% | 1015.2 hPa | 0 mm | - | 111 W/m² | - |
| 1778076904 | -6.67° C | 89% | 1015.2 hPa | 0 mm | - | 98 W/m² | - |
| 1778076604 | -6.67° C | 89% | 1015.2 hPa | 0 mm | - | 98 W/m² | - |
| 1778076304 | -6.67° C | 89% | 1015.3 hPa | 0 mm | - | 88 W/m² | - |
| 1778076004 | -6.67° C | 89% | 1015.5 hPa | 0 mm | - | 65 W/m² | - |
| 1778075705 | -6.67° C | 89% | 1015.5 hPa | 0 mm | - | 70 W/m² | - |
| 1778075404 | -6.67° C | 89% | 1015.5 hPa | 0 mm | - | 69 W/m² | - |
| 1778075103 | -6.67° C | 89% | 1015.5 hPa | 0 mm | - | 58 W/m² | - |
| 1778074804 | -6.67° C | 89% | 1015.4 hPa | 0 mm | - | 72 W/m² | - |
| 1778074504 | -6.67° C | 89% | 1015.3 hPa | 0 mm | - | 69 W/m² | - |
| 1778074204 | -6.67° C | 89% | 1015.3 hPa | 0 mm | - | 49 W/m² | - |
| 1778073904 | -7.22° C | 89% | 1015 hPa | 0 mm | - | 65 W/m² | - |
| 1778073604 | -7.22° C | 89% | 1015 hPa | 0 mm | - | 56 W/m² | - |
| 1778073304 | -7.22° C | 89% | 1015 hPa | 0 mm | - | 56 W/m² | - |
| 1778073004 | -7.22° C | 90% | 1015.1 hPa | 0 mm | - | 44 W/m² | - |
| 1778072704 | -7.22° C | 90% | 1015 hPa | 0 mm | - | 32 W/m² | - |
* Rain latest hour (hover to see other rain measurements)
** Current wind speed in m/s (hover to see current wind gust speed)